Airfield :
LOGIN :

Register | Disclaimer

   EN    FR    IT 

 










Legend :    VFR   Marginal VFR   IFR   Intensive IFR   Very Intensive IFR
Visi :
Ceiling :
>= 8 km
>= 3000ft
5 to 8 km
1000 to 3000 ft
1500m to 5 km
500 to 1000 ft
800 to 1500m
200 to 500 ft
< 800m
< 200 ft
Symbols :   Thunderstorms  Fog  Heavy snow  Heavy precipitations  Wind > 20 kt
SIGMETs :     Misc.  Thunderstorms  Icing  Turbulence  Mountain Waves  Volcanic Ashes







- Airport Elevation : 2540 ft
- IATA code : HRM


DAFH - Hassi R'Mel

CURRENT METAR :
  • 191700Z 27010KT 9999 SCT030 SCT233 15/03 Q1005

EXPIRED METARs :
  • 191600Z 27014KT 9999 SCT030 SCT233 16/03 Q1005
  • 191500Z 27014KT 9999 SCT030 SCT233 17/03 Q1005

TAF TAF DAFH
Valid from the 19 at 15:00 until the 20 at 00:00 UTC


191400Z 1915/1924 25015KT 9999 SCT030 SCT100
PROB30 TMPO 1915/1918 27015G25KT 5000 DRSA
No reported NOTAMs for that airfield.
1 SIGMET reported for the Alger FIR (DAAA) :
 
Severe turbulence
DAAA SIGMET 2 VALID 191500/191900 DAMM
DAAA ALGER FIR SEV TURB FCST N OF LINE N3350 W00156 - N3814 E00634 TOP FL230/340 STNR NC=



MET'MAP, your aeronautical weather chart ! - Copyright ORBIFLY December 2007 - Disclaimer

ORBIFLY MET'MAP TEAM :

Programming & Development : Alexandra Zaïnal
Concept & Development : Baudouin d'Aumeries
Co-Development & Prog : Marc-Olivier Méhu
Technical & hardware support : Manuel Goepfert

Contact : metmap@orbifly.com




SOURCES & CREDITS :

   NOAA